createdAt,value
2022-12-11T00:01:15.389Z,3.77
2022-12-11T00:03:44.020Z,3.77
2022-12-11T00:06:15.780Z,3.79
2022-12-11T00:08:44.620Z,3.82
2022-12-11T00:11:16.139Z,3.83
2022-12-11T00:13:44.818Z,3.84
2022-12-11T00:16:13.482Z,3.71
2022-12-11T00:18:42.300Z,3.66
2022-12-11T00:21:14.419Z,3.40
2022-12-11T00:23:42.699Z,3.37
2022-12-11T00:26:15.338Z,3.38
2022-12-11T00:28:44.820Z,3.35
2022-12-11T00:31:18.631Z,3.34
2022-12-11T00:33:49.939Z,3.38
2022-12-11T00:36:21.699Z,3.34
2022-12-11T00:38:50.660Z,3.32
2022-12-11T00:41:19.635Z,3.23
2022-12-11T00:43:48.358Z,3.04
2022-12-11T00:46:17.204Z,2.89
2022-12-11T00:48:46.738Z,2.74
2022-12-11T00:51:14.874Z,2.72
2022-12-11T00:53:42.993Z,2.72
2022-12-11T00:56:20.235Z,2.76
2022-12-11T00:58:48.873Z,2.67
2022-12-11T01:01:23.888Z,2.33
2022-12-11T01:03:54.513Z,2.45
2022-12-11T01:06:25.594Z,2.52
2022-12-11T01:09:15.558Z,2.64
2022-12-11T01:11:44.524Z,2.72
2022-12-11T01:14:13.829Z,2.79
2022-12-11T01:16:42.464Z,2.85
2022-12-11T01:19:11.113Z,2.91
2022-12-11T01:21:39.601Z,2.92
2022-12-11T01:24:08.228Z,2.93
2022-12-11T01:26:36.491Z,2.93
2022-12-11T01:29:05.030Z,2.94
2022-12-11T01:31:34.499Z,2.94
2022-12-11T01:34:03.058Z,2.92
2022-12-11T01:36:31.618Z,2.91
2022-12-11T01:39:00.323Z,2.91
2022-12-11T01:41:28.919Z,2.90
2022-12-11T01:44:03.805Z,2.84
2022-12-11T01:46:35.086Z,2.81
2022-12-11T01:49:08.399Z,2.74
2022-12-11T01:51:46.564Z,2.68
2022-12-11T01:54:18.204Z,2.68
2022-12-11T01:56:49.003Z,2.67
2022-12-11T01:59:24.045Z,2.58
2022-12-11T02:02:00.083Z,2.43
2022-12-11T02:04:29.604Z,2.40
2022-12-11T02:06:57.684Z,2.41
2022-12-11T02:09:29.564Z,2.40
2022-12-11T02:12:10.324Z,2.40
2022-12-11T02:15:06.445Z,2.41
2022-12-11T02:17:45.044Z,2.40
2022-12-11T02:20:35.644Z,2.39
2022-12-11T02:23:15.845Z,2.40
2022-12-11T02:26:08.524Z,2.43
2022-12-11T02:28:47.538Z,2.45
2022-12-11T02:31:38.383Z,2.44
2022-12-11T02:34:13.200Z,2.47
2022-12-11T02:36:45.929Z,2.52
2022-12-11T02:39:16.800Z,2.57
2022-12-11T02:41:49.870Z,2.60
2022-12-11T02:44:26.335Z,2.63
2022-12-11T02:46:56.333Z,2.67
2022-12-11T02:49:26.297Z,2.67
2022-12-11T02:51:57.524Z,2.67
2022-12-11T02:54:31.529Z,2.68
2022-12-11T02:57:09.209Z,2.55
2022-12-11T02:59:41.569Z,2.48
2022-12-11T03:02:11.883Z,2.44
2022-12-11T03:04:41.214Z,2.38
2022-12-11T03:07:16.134Z,2.37
2022-12-11T03:09:47.723Z,2.35
2022-12-11T03:12:30.064Z,2.36
2022-12-11T03:15:04.505Z,2.38
2022-12-11T03:17:38.803Z,2.40
2022-12-11T03:20:25.950Z,2.41
2022-12-11T03:23:09.858Z,2.40
2022-12-11T03:25:50.514Z,2.31
2022-12-11T03:28:29.694Z,2.07
2022-12-11T03:31:03.762Z,1.86
2022-12-11T03:33:37.319Z,1.65
2022-12-11T03:36:14.174Z,1.58
2022-12-11T03:38:51.933Z,1.69
2022-12-11T03:41:23.734Z,1.78
2022-12-11T03:43:56.850Z,1.88
2022-12-11T03:46:31.229Z,1.93
2022-12-11T03:49:08.325Z,1.96
2022-12-11T03:51:36.843Z,1.88
2022-12-11T03:54:05.406Z,1.82
2022-12-11T03:56:36.808Z,1.89
2022-12-11T03:59:05.283Z,1.92
2022-12-11T04:01:33.383Z,1.92
2022-12-11T04:04:01.517Z,1.98
2022-12-11T04:06:30.204Z,2.02
2022-12-11T04:08:58.245Z,2.03
2022-12-11T04:11:35.083Z,2.08
2022-12-11T04:14:40.535Z,2.14
2022-12-11T04:17:08.698Z,2.00
2022-12-11T04:19:55.284Z,1.96
2022-12-11T04:22:41.815Z,2.01
2022-12-11T04:25:10.509Z,2.08
2022-12-11T04:27:51.095Z,2.16
2022-12-11T04:30:28.050Z,2.17
2022-12-11T04:32:59.614Z,2.18
2022-12-11T04:35:28.595Z,1.97
2022-12-11T04:37:57.616Z,2.14
2022-12-11T04:40:26.019Z,2.19
2022-12-11T04:42:54.774Z,2.26
2022-12-11T17:15:51.113Z,2.34
2022-12-11T17:18:20.450Z,2.34
2022-12-11T17:20:50.716Z,2.40
2022-12-11T17:23:20.566Z,2.53
2022-12-11T17:28:47.005Z,2.71
2022-12-11T17:31:21.738Z,2.74
2022-12-11T17:38:37.754Z,2.49
2022-12-11T17:41:20.534Z,2.39
2022-12-11T17:43:54.795Z,2.31
2022-12-11T17:46:33.861Z,2.38
2022-12-11T17:57:33.464Z,2.70
2022-12-11T18:05:33.815Z,2.81
2022-12-11T18:25:09.565Z,1.76
2022-12-11T18:30:28.249Z,1.44
2022-12-11T18:33:01.968Z,1.55
2022-12-11T18:35:36.355Z,1.60
2022-12-11T18:40:54.835Z,1.56
2022-12-11T19:24:34.704Z,1.71
2022-12-11T20:26:00.666Z,1.17
